Time;durP1;ratioP1;P1;durP2;ratioP2;P2;SDS_P1;SDS_P2;PMS_P1;PMS_P2;Temp;Humidity;BMP_temperature;BMP_pressure;BME280_temperature;BME280_humidity;BME280_pressure;Samples;Min_cycle;Max_cycle;Signal;HPM_P1;HPM_P2
2023/10/11 00:00:51;;;;;;;11.82;9.40;;;;;;;;;;4983095;28;20518;-58
2023/10/11 00:03:32;;;;;;;15.15;8.95;;;;;;;;;;4982212;28;20487;-58
2023/10/11 00:05:59;;;;;;;17.05;9.23;;;;;;;;;;4984070;28;20046;-58
2023/10/11 00:08:25;;;;;;;13.90;10.15;;;;;;;;;;4982844;28;20514;-58
2023/10/11 00:10:56;;;;;;;16.02;8.70;;;;;;;;;;4983336;28;20050;-58
2023/10/11 00:13:22;;;;;;;15.23;10.07;;;;;;;;;;4982836;28;20049;-58
2023/10/11 00:15:50;;;;;;;22.52;11.60;;;;;;;;;;4982701;28;20035;-58
2023/10/11 00:18:20;;;;;;;23.90;12.13;;;;;;;;;;4982278;28;20538;-58
2023/10/11 00:23:12;;;;;;;24.77;11.88;;;;;;;;;;4981799;28;20469;-58
2023/10/11 00:25:39;;;;;;;16.20;10.20;;;;;;;;;;4982979;28;20466;-59
2023/10/11 00:28:08;;;;;;;16.20;10.70;;;;;;;;;;4981536;28;20134;-59
2023/10/11 00:30:38;;;;;;;16.77;10.73;;;;;;;;;;4980812;28;20055;-59
2023/10/11 00:33:04;;;;;;;18.25;11.63;;;;;;;;;;4982234;28;20069;-58
2023/10/11 00:35:32;;;;;;;20.48;12.23;;;;;;;;;;4982533;28;20038;-58
2023/10/11 00:38:00;;;;;;;16.75;9.40;;;;;;;;;;4981893;28;20411;-58
2023/10/11 00:40:32;;;;;;;11.45;7.97;;;;;;;;;;4982892;28;20101;-58
2023/10/11 00:42:59;;;;;;;14.25;10.07;;;;;;;;;;4982861;28;20495;-59
2023/10/11 00:45:26;;;;;;;17.95;10.90;;;;;;;;;;4983091;28;20050;-58
2023/10/11 00:47:56;;;;;;;18.65;10.57;;;;;;;;;;4982004;28;20498;-58
2023/10/11 00:50:25;;;;;;;14.88;9.70;;;;;;;;;;4981550;28;20100;-58
2023/10/11 00:52:51;;;;;;;15.20;9.35;;;;;;;;;;4982957;28;20585;-58
2023/10/11 00:55:21;;;;;;;20.40;11.18;;;;;;;;;;4981993;28;20042;-58
2023/10/11 00:57:48;;;;;;;18.90;11.55;;;;;;;;;;4982246;28;20145;-58
2023/10/11 01:00:21;;;;;;;26.23;12.52;;;;;;;;;;4982479;28;20502;-58
2023/10/11 01:02:47;;;;;;;25.33;10.98;;;;;;;;;;4982469;28;20088;-59
2023/10/11 01:05:14;;;;;;;21.20;12.52;;;;;;;;;;4981574;28;20113;-58
2023/10/11 01:07:40;;;;;;;18.92;10.75;;;;;;;;;;4986185;28;20046;-58
2023/10/11 01:10:07;;;;;;;14.93;10.27;;;;;;;;;;4986238;28;20784;-58
2023/10/11 01:12:33;;;;;;;17.75;10.60;;;;;;;;;;4986178;28;20038;-58
2023/10/11 01:14:59;;;;;;;17.58;10.88;;;;;;;;;;4986602;28;20039;-58
2023/10/11 01:17:31;;;;;;;13.70;10.10;;;;;;;;;;4987098;28;20053;-57
2023/10/11 01:19:59;;;;;;;21.08;11.00;;;;;;;;;;4984482;28;20046;-58
2023/10/11 01:22:27;;;;;;;19.30;11.00;;;;;;;;;;4986151;28;20546;-58
2023/10/11 01:24:54;;;;;;;18.33;10.32;;;;;;;;;;4986606;28;20511;-58
2023/10/11 01:27:22;;;;;;;16.33;10.20;;;;;;;;;;4985043;28;20051;-58
2023/10/11 01:29:48;;;;;;;14.88;9.77;;;;;;;;;;4986324;28;20049;-58
2023/10/11 01:32:14;;;;;;;17.23;9.75;;;;;;;;;;4985174;28;20453;-58
2023/10/11 01:34:43;;;;;;;15.82;9.63;;;;;;;;;;4985730;28;20510;-58
2023/10/11 01:37:09;;;;;;;20.00;10.18;;;;;;;;;;4985494;28;20105;-58
2023/10/11 01:39:35;;;;;;;17.48;9.18;;;;;;;;;;4985162;28;20087;-59
2023/10/11 01:42:01;;;;;;;12.32;8.20;;;;;;;;;;4985120;28;20136;-58
2023/10/11 01:44:29;;;;;;;11.38;8.35;;;;;;;;;;4986168;28;20042;-58
2023/10/11 01:46:55;;;;;;;13.05;8.63;;;;;;;;;;4985941;28;20046;-58
2023/10/11 01:49:21;;;;;;;16.27;9.98;;;;;;;;;;4985555;28;20414;-58
2023/10/11 01:51:47;;;;;;;17.92;10.60;;;;;;;;;;4986234;28;20042;-58
2023/10/11 01:54:15;;;;;;;22.63;12.15;;;;;;;;;;4984738;28;20477;-59
2023/10/11 01:56:41;;;;;;;17.42;11.15;;;;;;;;;;4985023;28;20355;-58
2023/10/11 01:59:09;;;;;;;23.27;12.15;;;;;;;;;;4985252;28;20046;-58
2023/10/11 02:01:41;;;;;;;23.10;11.10;;;;;;;;;;4984905;28;20498;-58
2023/10/11 02:04:17;;;;;;;16.77;11.60;;;;;;;;;;4983276;28;20518;-58
2023/10/11 02:06:43;;;;;;;19.83;10.63;;;;;;;;;;4985460;28;20050;-58
2023/10/11 02:09:11;;;;;;;19.83;10.00;;;;;;;;;;4984143;28;20043;-58
2023/10/11 02:11:41;;;;;;;17.52;10.73;;;;;;;;;;4984449;28;20051;-58
2023/10/11 02:14:07;;;;;;;16.27;10.05;;;;;;;;;;4985235;28;20103;-58
2023/10/11 02:16:33;;;;;;;13.32;9.18;;;;;;;;;;4983983;28;20057;-58
2023/10/11 02:19:00;;;;;;;19.88;11.07;;;;;;;;;;4985065;28;20081;-58
2023/10/11 02:21:30;;;;;;;16.58;9.63;;;;;;;;;;4985319;28;20394;-58
2023/10/11 02:23:57;;;;;;;18.70;9.93;;;;;;;;;;4985858;28;20034;-58
2023/10/11 02:26:34;;;;;;;15.65;9.20;;;;;;;;;;4984863;28;20078;-58
2023/10/11 02:29:00;;;;;;;20.10;10.20;;;;;;;;;;4984035;28;20046;-58
2023/10/11 02:31:31;;;;;;;15.13;9.00;;;;;;;;;;4984991;28;20294;-58
2023/10/11 02:34:07;;;;;;;14.82;9.07;;;;;;;;;;4986075;28;20039;-58
2023/10/11 02:36:36;;;;;;;16.85;10.25;;;;;;;;;;4984219;28;20042;-58
2023/10/11 02:39:05;;;;;;;14.50;8.90;;;;;;;;;;4983184;28;20050;-58
2023/10/11 02:41:32;;;;;;;18.08;9.98;;;;;;;;;;4984913;28;20042;-58
2023/10/11 02:43:58;;;;;;;12.18;8.40;;;;;;;;;;4984732;28;20097;-58
2023/10/11 02:46:24;;;;;;;9.57;6.82;;;;;;;;;;4984457;28;20046;-58
2023/10/11 02:49:04;;;;;;;12.88;8.57;;;;;;;;;;4985023;28;20132;-58
2023/10/11 02:51:32;;;;;;;20.23;9.82;;;;;;;;;;4984035;28;20498;-58
2023/10/11 02:53:59;;;;;;;16.85;8.90;;;;;;;;;;4985122;28;20089;-58
2023/10/11 02:56:25;;;;;;;14.88;9.25;;;;;;;;;;4983633;28;20512;-58
2023/10/11 02:58:52;;;;;;;14.10;8.73;;;;;;;;;;4983489;28;20034;-59
2023/10/11 03:01:20;;;;;;;15.15;9.32;;;;;;;;;;4984088;28;20125;-58
2023/10/11 03:03:47;;;;;;;12.23;8.07;;;;;;;;;;4983585;28;20042;-58
2023/10/11 03:06:14;;;;;;;15.40;8.98;;;;;;;;;;4983703;28;20510;-58
2023/10/11 03:08:44;;;;;;;15.35;8.70;;;;;;;;;;4984564;28;20038;-58
2023/10/11 03:11:15;;;;;;;17.15;8.82;;;;;;;;;;4976280;28;20039;-57
2023/10/11 03:13:42;;;;;;;11.05;7.80;;;;;;;;;;4983694;28;20089;-58
2023/10/11 03:16:13;;;;;;;8.82;6.63;;;;;;;;;;4983346;28;20038;-58
2023/10/11 03:18:40;;;;;;;13.00;8.00;;;;;;;;;;4983503;28;20449;-58
2023/10/11 03:21:17;;;;;;;14.73;7.88;;;;;;;;;;4983506;28;20328;-58
2023/10/11 03:23:47;;;;;;;17.33;10.20;;;;;;;;;;4983590;28;20042;-58
2023/10/11 03:26:19;;;;;;;17.77;8.90;;;;;;;;;;4982458;28;20141;-58
2023/10/11 03:28:57;;;;;;;19.98;9.00;;;;;;;;;;4982706;28;20046;-58
2023/10/11 03:31:23;;;;;;;13.13;7.57;;;;;;;;;;4982867;28;20104;-58
2023/10/11 03:33:49;;;;;;;13.80;8.00;;;;;;;;;;4983053;28;20041;-58
2023/10/11 03:36:18;;;;;;;14.93;8.75;;;;;;;;;;4983551;28;20414;-58
2023/10/11 03:38:54;;;;;;;14.48;7.45;;;;;;;;;;4983967;28;20220;-58
2023/10/11 03:41:28;;;;;;;18.27;8.65;;;;;;;;;;4982565;28;20053;-58
2023/10/11 03:43:54;;;;;;;15.43;8.70;;;;;;;;;;4983636;28;20050;-58
2023/10/11 03:46:24;;;;;;;16.48;7.90;;;;;;;;;;4981689;28;20415;-58
2023/10/11 03:49:02;;;;;;;14.90;8.10;;;;;;;;;;4983657;28;20049;-58
2023/10/11 03:51:28;;;;;;;16.85;7.68;;;;;;;;;;4983464;28;20044;-58
2023/10/11 03:53:54;;;;;;;15.70;7.85;;;;;;;;;;4982805;28;20046;-58
2023/10/11 03:56:20;;;;;;;16.25;7.50;;;;;;;;;;4982401;28;20395;-58
2023/10/11 03:58:50;;;;;;;13.18;7.32;;;;;;;;;;4983658;28;20042;-59
2023/10/11 04:03:45;;;;;;;19.05;8.82;;;;;;;;;;4983790;28;20042;-59
2023/10/11 04:06:14;;;;;;;15.57;8.88;;;;;;;;;;4983402;28;20806;-58
2023/10/11 04:08:42;;;;;;;16.55;8.05;;;;;;;;;;4981459;28;20042;-58
2023/10/11 04:11:18;;;;;;;15.13;7.95;;;;;;;;;;4983202;28;20046;-58
2023/10/11 04:13:46;;;;;;;14.13;7.90;;;;;;;;;;4983321;28;20052;-58
2023/10/11 04:16:17;;;;;;;18.48;8.27;;;;;;;;;;4982081;28;20038;-59
2023/10/11 04:18:43;;;;;;;18.27;7.65;;;;;;;;;;4983027;28;20120;-58
2023/10/11 04:23:36;;;;;;;16.20;8.18;;;;;;;;;;4983410;28;20042;-58
2023/10/11 04:26:08;;;;;;;10.63;6.40;;;;;;;;;;4983321;28;20053;-59
2023/10/11 04:28:39;;;;;;;13.90;6.35;;;;;;;;;;4963349;28;20145;-58
2023/10/11 04:33:51;;;;;;;12.88;6.53;;;;;;;;;;4982324;28;20258;-58
2023/10/11 04:36:20;;;;;;;12.20;7.07;;;;;;;;;;4981470;28;20049;-58
2023/10/11 04:38:49;;;;;;;9.88;6.53;;;;;;;;;;4983286;28;20042;-58
2023/10/11 04:41:20;;;;;;;14.93;6.93;;;;;;;;;;4982313;28;20458;-58
2023/10/11 04:44:13;;;;;;;12.90;7.05;;;;;;;;;;4982054;28;20046;-58
2023/10/11 04:46:44;;;;;;;12.13;6.03;;;;;;;;;;4980940;28;20054;-58
2023/10/11 04:49:21;;;;;;;13.38;7.43;;;;;;;;;;4980364;28;20050;-58
2023/10/11 04:51:47;;;;;;;16.88;8.10;;;;;;;;;;4982622;28;20418;-58
2023/10/11 04:54:15;;;;;;;14.98;7.30;;;;;;;;;;4981286;28;20038;-58
2023/10/11 05:04:27;;;;;;;13.50;7.63;;;;;;;;;;4980818;28;20690;-59
2023/10/11 05:06:54;;;;;;;11.30;6.43;;;;;;;;;;4981779;28;20124;-57
2023/10/11 05:11:50;;;;;;;14.07;7.22;;;;;;;;;;4982214;28;20431;-58
2023/10/11 05:14:29;;;;;;;12.20;6.90;;;;;;;;;;4982004;28;20395;-58
2023/10/11 05:17:09;;;;;;;19.55;7.85;;;;;;;;;;4982301;28;20078;-57
2023/10/11 05:19:35;;;;;;;14.60;7.60;;;;;;;;;;4980452;28;20049;-58
2023/10/11 05:22:03;;;;;;;16.45;7.78;;;;;;;;;;4981036;28;20034;-58
2023/10/11 05:30:05;;;;;;;14.32;7.90;;;;;;;;;;4981233;28;20054;-58
2023/10/11 05:32:41;;;;;;;13.10;7.28;;;;;;;;;;4982087;28;20078;-58
2023/10/11 05:51:27;;;;;;;13.63;7.18;;;;;;;;;;4981157;28;20046;-58
2023/10/11 05:53:53;;;;;;;14.63;7.15;;;;;;;;;;4984419;28;20038;-58
2023/10/11 05:56:22;;;;;;;14.45;7.82;;;;;;;;;;4984578;28;20050;-58
2023/10/11 05:58:54;;;;;;;16.52;9.05;;;;;;;;;;4984757;28;20050;-58
2023/10/11 06:01:21;;;;;;;12.93;7.25;;;;;;;;;;4983431;28;20042;-58
2023/10/11 06:03:55;;;;;;;10.40;6.80;;;;;;;;;;4984333;28;20050;-58
2023/10/11 06:09:26;;;;;;;14.10;8.02;;;;;;;;;;4951765;28;20050;-59
2023/10/11 06:11:52;;;;;;;14.88;8.45;;;;;;;;;;4986013;28;20046;-58
2023/10/11 06:14:19;;;;;;;17.02;8.90;;;;;;;;;;4984451;28;20035;-58
2023/10/11 06:16:58;;;;;;;14.02;9.00;;;;;;;;;;4985488;28;20038;-59
2023/10/11 06:19:27;;;;;;;12.45;7.75;;;;;;;;;;4984453;28;20067;-58
2023/10/11 06:21:58;;;;;;;10.90;7.65;;;;;;;;;;4982702;28;20042;-58
2023/10/11 06:24:24;;;;;;;14.10;8.30;;;;;;;;;;4984829;28;20089;-58
2023/10/11 06:26:56;;;;;;;18.13;8.60;;;;;;;;;;4986346;28;20509;-58
2023/10/11 06:29:29;;;;;;;13.83;8.17;;;;;;;;;;4984853;28;20046;-58
2023/10/11 06:31:55;;;;;;;18.80;8.77;;;;;;;;;;4986266;28;20100;-58
2023/10/11 06:36:51;;;;;;;19.48;8.55;;;;;;;;;;4984578;28;20046;-58
2023/10/11 06:39:33;;;;;;;11.45;7.55;;;;;;;;;;4984313;28;20045;-58
2023/10/11 06:41:59;;;;;;;15.68;8.20;;;;;;;;;;4986198;28;20049;-58
2023/10/11 06:44:25;;;;;;;19.58;8.68;;;;;;;;;;4985797;28;20136;-58
2023/10/11 06:46:51;;;;;;;10.95;7.15;;;;;;;;;;4987009;28;20046;-58
2023/10/11 06:49:19;;;;;;;16.70;8.73;;;;;;;;;;4985959;28;20053;-58
2023/10/11 06:51:45;;;;;;;14.98;7.85;;;;;;;;;;4983758;28;20568;-59
2023/10/11 06:54:14;;;;;;;13.90;7.80;;;;;;;;;;4985258;28;20125;-59
2023/10/11 06:56:40;;;;;;;12.60;7.93;;;;;;;;;;4986203;28;20086;-58
2023/10/11 06:59:06;;;;;;;11.82;7.63;;;;;;;;;;4981429;28;20147;-58
2023/10/11 07:01:35;;;;;;;10.77;7.45;;;;;;;;;;4982879;28;20128;-58
2023/10/11 07:04:02;;;;;;;16.58;9.73;;;;;;;;;;4966377;28;20042;-58
2023/10/11 07:06:29;;;;;;;14.15;8.77;;;;;;;;;;4988032;28;20520;-58
2023/10/11 07:08:58;;;;;;;11.63;8.20;;;;;;;;;;4987904;28;20049;-58
2023/10/11 07:11:41;;;;;;;13.50;8.52;;;;;;;;;;4987572;28;20176;-58
2023/10/11 07:14:14;;;;;;;10.10;6.18;;;;;;;;;;4982339;28;20487;-58
2023/10/11 07:16:42;;;;;;;11.18;7.78;;;;;;;;;;4984745;28;20517;-59
2023/10/11 07:19:09;;;;;;;14.27;8.13;;;;;;;;;;4986032;28;20798;-58
2023/10/11 07:24:31;;;;;;;11.18;6.18;;;;;;;;;;4978934;28;20100;-58
2023/10/11 07:26:59;;;;;;;14.85;7.70;;;;;;;;;;4984354;28;20391;-58
2023/10/11 07:29:26;;;;;;;9.70;7.47;;;;;;;;;;4988201;28;20450;-58
2023/10/11 07:31:53;;;;;;;11.50;7.68;;;;;;;;;;4986419;28;20074;-58
2023/10/11 07:34:25;;;;;;;13.82;7.10;;;;;;;;;;4986988;28;20094;-58
2023/10/11 07:36:51;;;;;;;;;;;;;;;;;;4988472;28;20990;-58
2023/10/11 07:39:25;;;;;;;13.23;8.15;;;;;;;;;;4987053;28;19922;-58
2023/10/11 07:42:07;;;;;;;16.50;8.60;;;;;;;;;;4988137;28;20053;-58
2023/10/11 07:44:36;;;;;;;14.48;9.05;;;;;;;;;;4987947;28;20495;-58
2023/10/11 07:47:03;;;;;;;15.88;8.68;;;;;;;;;;4986969;28;20113;-59
2023/10/11 07:49:37;;;;;;;16.17;8.40;;;;;;;;;;4988350;28;20389;-58
2023/10/11 07:52:08;;;;;;;16.58;8.43;;;;;;;;;;4987377;28;20053;-58
2023/10/11 07:54:35;;;;;;;12.38;7.13;;;;;;;;;;4970815;28;20062;-59
2023/10/11 07:57:03;;;;;;;14.50;7.55;;;;;;;;;;4988213;28;20042;-58
2023/10/11 07:59:30;;;;;;;13.40;7.35;;;;;;;;;;4987330;28;20105;-59
2023/10/11 08:02:08;;;;;;;17.73;8.50;;;;;;;;;;4985620;28;20510;-58
2023/10/11 08:04:36;;;;;;;11.88;7.25;;;;;;;;;;4986560;28;20132;-54
2023/10/11 08:07:03;;;;;;;15.63;8.15;;;;;;;;;;4986230;28;20188;-62
2023/10/11 08:09:45;;;;;;;8.63;6.40;;;;;;;;;;4987118;28;20053;-64
2023/10/11 08:12:15;;;;;;;15.13;7.15;;;;;;;;;;4986940;28;20042;-58
2023/10/11 08:14:44;;;;;;;9.77;6.47;;;;;;;;;;4984621;28;20231;-59
2023/10/11 08:17:12;;;;;;;14.18;7.88;;;;;;;;;;4985387;28;20490;-59
2023/10/11 08:19:38;;;;;;;12.07;8.27;;;;;;;;;;4985941;28;20120;-60
2023/10/11 08:22:09;;;;;;;12.43;8.43;;;;;;;;;;4983495;28;20046;-59
2023/10/11 08:24:56;;;;;;;15.85;8.63;;;;;;;;;;4982218;28;20057;-59
2023/10/11 08:27:29;;;;;;;16.98;6.97;;;;;;;;;;4983708;28;20054;-59
2023/10/11 08:30:08;;;;;;;15.95;7.95;;;;;;;;;;4984027;28;20078;-59
2023/10/11 08:32:37;;;;;;;18.08;8.10;;;;;;;;;;4986289;28;20042;-59
2023/10/11 08:35:04;;;;;;;11.93;7.18;;;;;;;;;;4982630;28;20038;-59
2023/10/11 08:37:31;;;;;;;17.33;8.30;;;;;;;;;;4984634;28;20055;-59
2023/10/11 08:39:58;;;;;;;9.32;6.60;;;;;;;;;;4984058;28;20050;-59
2023/10/11 08:42:30;;;;;;;8.82;6.22;;;;;;;;;;4980010;28;20039;-59
2023/10/11 08:45:00;;;;;;;9.10;6.72;;;;;;;;;;4984144;28;20058;-60
2023/10/11 08:47:29;;;;;;;10.00;6.53;;;;;;;;;;4983814;28;20049;-60
2023/10/11 08:49:55;;;;;;;15.00;7.95;;;;;;;;;;4984551;28;20410;-59
2023/10/11 08:52:27;;;;;;;8.93;7.07;;;;;;;;;;4985415;28;20045;-58
2023/10/11 08:54:54;;;;;;;11.93;6.82;;;;;;;;;;4985735;28;20046;-59
2023/10/11 08:57:23;;;;;;;11.88;6.47;;;;;;;;;;4984413;28;20096;-58
2023/10/11 08:59:59;;;;;;;8.07;5.90;;;;;;;;;;4985204;28;20091;-62
2023/10/11 09:02:33;;;;;;;6.68;4.93;;;;;;;;;;4982690;28;20524;-58
2023/10/11 09:05:06;;;;;;;9.52;6.35;;;;;;;;;;4985395;28;20541;-59
2023/10/11 09:07:39;;;;;;;9.77;5.88;;;;;;;;;;4985669;28;20073;-58
2023/10/11 09:10:27;;;;;;;5.20;4.70;;;;;;;;;;4984813;28;20042;-59
2023/10/11 09:12:58;;;;;;;6.40;5.30;;;;;;;;;;4979964;28;20433;-58
2023/10/11 09:15:40;;;;;;;8.38;5.38;;;;;;;;;;4983927;28;20050;-59
2023/10/11 09:18:14;;;;;;;7.00;5.18;;;;;;;;;;4978797;28;20106;-59
2023/10/11 09:20:41;;;;;;;5.38;4.57;;;;;;;;;;4985481;28;20144;-59
2023/10/11 09:23:08;;;;;;;6.57;5.60;;;;;;;;;;4985859;28;20057;-59
2023/10/11 09:25:59;;;;;;;5.85;5.20;;;;;;;;;;4984949;28;20057;-59
2023/10/11 09:28:28;;;;;;;5.95;5.20;;;;;;;;;;4982866;28;20187;-59
2023/10/11 09:31:27;;;;;;;6.18;4.05;;;;;;;;;;4988862;28;20562;-59
2023/10/11 09:34:07;;;;;;;8.57;5.00;;;;;;;;;;4989782;28;20047;-59
2023/10/11 09:36:33;;;;;;;12.35;5.28;;;;;;;;;;4989829;28;20537;-59
2023/10/11 09:39:02;;;;;;;5.85;4.95;;;;;;;;;;4988904;28;20053;-59
2023/10/11 09:41:29;;;;;;;6.75;4.95;;;;;;;;;;4987658;28;20073;-60
2023/10/11 09:43:58;;;;;;;6.55;4.75;;;;;;;;;;4987536;28;20050;-60
2023/10/11 09:46:31;;;;;;;5.70;4.32;;;;;;;;;;4986759;28;20521;-60
2023/10/11 09:48:57;;;;;;;5.20;4.35;;;;;;;;;;4987712;28;20046;-59
2023/10/11 09:51:24;;;;;;;6.88;5.78;;;;;;;;;;4970285;28;20544;-59
2023/10/11 09:53:51;;;;;;;6.63;4.60;;;;;;;;;;4986855;28;20405;-59
2023/10/11 09:56:23;;;;;;;7.30;5.40;;;;;;;;;;4988887;28;20403;-59
2023/10/11 09:59:01;;;;;;;5.75;4.55;;;;;;;;;;4988379;28;20042;-59
2023/10/11 10:01:32;;;;;;;9.52;5.82;;;;;;;;;;4988976;28;20122;-59
2023/10/11 10:04:05;;;;;;;6.18;4.72;;;;;;;;;;4989488;28;20038;-59
2023/10/11 10:06:31;;;;;;;7.32;4.15;;;;;;;;;;4988570;28;20373;-59
2023/10/11 10:12:09;;;;;;;6.22;4.70;;;;;;;;;;4944942;28;20085;-59
2023/10/11 10:14:41;;;;;;;5.43;4.78;;;;;;;;;;4988035;28;20046;-59
2023/10/11 10:17:13;;;;;;;;;;;;;;;;;;4989590;28;20062;-59
2023/10/11 10:19:40;;;;;;;6.18;4.50;;;;;;;;;;4988759;28;19926;-59
2023/10/11 10:22:17;;;;;;;9.90;5.22;;;;;;;;;;4983385;28;20359;-59
2023/10/11 10:24:46;;;;;;;4.78;4.35;;;;;;;;;;4986469;28;20121;-59
2023/10/11 10:27:24;;;;;;;7.30;4.45;;;;;;;;;;4987814;28;20131;-58
2023/10/11 10:29:59;;;;;;;6.45;5.32;;;;;;;;;;4987742;28;20521;-59
2023/10/11 10:32:26;;;;;;;5.97;4.63;;;;;;;;;;4986792;28;20560;-60
2023/10/11 10:35:36;;;;;;;7.75;4.97;;;;;;;;;;4986399;28;20502;-60
2023/10/11 10:38:04;;;;;;;10.95;5.00;;;;;;;;;;4927249;29;20055;-59
2023/10/11 10:40:30;;;;;;;8.32;4.57;;;;;;;;;;4982391;28;20082;-59
2023/10/11 10:43:19;;;;;;;6.07;4.85;;;;;;;;;;4985185;28;20074;-60
2023/10/11 10:45:47;;;;;;;11.73;4.45;;;;;;;;;;4982672;28;20502;-60
2023/10/11 10:48:19;;;;;;;7.32;4.20;;;;;;;;;;4987540;28;20725;-59
2023/10/11 10:50:48;;;;;;;6.07;3.80;;;;;;;;;;4988983;28;20042;-59
2023/10/11 10:53:15;;;;;;;7.03;4.28;;;;;;;;;;4988361;28;20050;-59
2023/10/11 10:55:42;;;;;;;7.82;4.00;;;;;;;;;;4988378;28;20422;-59
2023/10/11 10:58:09;;;;;;;6.53;4.43;;;;;;;;;;4988588;28;20054;-59
2023/10/11 11:00:40;;;;;;;4.75;3.60;;;;;;;;;;4970445;28;20054;-59
2023/10/11 11:03:19;;;;;;;4.72;3.83;;;;;;;;;;4985433;28;20046;-59
2023/10/11 11:05:55;;;;;;;4.10;3.33;;;;;;;;;;4988453;28;20074;-59
2023/10/11 11:08:25;;;;;;;5.28;3.30;;;;;;;;;;4985900;28;20050;-60
2023/10/11 11:11:14;;;;;;;5.85;3.55;;;;;;;;;;4986338;28;20038;-59
2023/10/11 11:13:40;;;;;;;11.68;4.00;;;;;;;;;;4986397;28;20561;-59
2023/10/11 11:16:14;;;;;;;3.22;2.97;;;;;;;;;;4983637;28;20042;-59
2023/10/11 11:18:43;;;;;;;2.75;2.50;;;;;;;;;;4988211;28;20510;-59
2023/10/11 11:21:25;;;;;;;4.22;3.38;;;;;;;;;;4988276;28;20038;-59
2023/10/11 11:23:51;;;;;;;;;;;;;;;;;;4987812;28;20042;-60
2023/10/11 11:26:21;;;;;;;6.75;2.80;;;;;;;;;;4988274;28;19972;-59
2023/10/11 11:28:47;;;;;;;4.10;2.70;;;;;;;;;;4988163;28;20042;-59
2023/10/11 11:31:13;;;;;;;4.30;3.33;;;;;;;;;;4982896;28;20097;-58
2023/10/11 11:34:05;;;;;;;4.40;3.22;;;;;;;;;;4966124;28;20121;-59
2023/10/11 11:36:30;;;;;;;5.30;3.00;;;;;;;;;;4985696;28;20053;-59
2023/10/11 11:38:56;;;;;;;4.18;3.17;;;;;;;;;;4983245;28;20117;-59
2023/10/11 11:41:22;;;;;;;6.32;2.97;;;;;;;;;;4987199;28;20104;-59
2023/10/11 11:43:48;;;;;;;4.10;2.60;;;;;;;;;;4986432;28;20034;-59
2023/10/11 11:46:15;;;;;;;9.63;3.25;;;;;;;;;;4984648;28;20090;-60
2023/10/11 11:48:42;;;;;;;7.28;3.20;;;;;;;;;;4986444;28;20052;-59
2023/10/11 11:51:13;;;;;;;5.13;2.80;;;;;;;;;;4977744;28;20038;-59
2023/10/11 11:53:43;;;;;;;5.35;2.80;;;;;;;;;;4985173;28;20494;-60
2023/10/11 11:56:10;;;;;;;3.95;3.28;;;;;;;;;;4987102;28;20506;-59
2023/10/11 11:58:37;;;;;;;6.50;3.13;;;;;;;;;;4984904;28;20078;-59
2023/10/11 12:01:08;;;;;;;5.03;3.00;;;;;;;;;;4983701;28;20049;-60
2023/10/11 12:03:36;;;;;;;;;;;;;;;;;;4982095;28;20782;-59
2023/10/11 12:06:02;;;;;;;5.40;2.97;;;;;;;;;;4985753;28;19918;-59
2023/10/11 12:08:31;;;;;;;4.30;2.90;;;;;;;;;;4979585;28;20097;-60
2023/10/11 12:10:57;;;;;;;2.58;2.38;;;;;;;;;;4986319;28;20042;-60
2023/10/11 12:13:24;;;;;;;4.70;2.88;;;;;;;;;;4978704;28;20630;-59
2023/10/11 12:15:54;;;;;;;3.83;2.70;;;;;;;;;;4983686;28;20080;-59
2023/10/11 12:18:33;;;;;;;5.80;2.42;;;;;;;;;;4984452;28;20499;-60
2023/10/11 12:21:10;;;;;;;7.43;2.63;;;;;;;;;;4981281;28;20183;-60
2023/10/11 12:23:36;;;;;;;3.45;2.60;;;;;;;;;;4984880;28;20053;-59
2023/10/11 12:26:04;;;;;;;4.90;2.67;;;;;;;;;;4984756;28;20043;-60
2023/10/11 12:28:30;;;;;;;5.55;2.90;;;;;;;;;;4983167;28;20077;-60
2023/10/11 12:31:00;;;;;;;8.80;3.22;;;;;;;;;;4983906;28;20055;-59
2023/10/11 12:33:27;;;;;;;5.63;2.58;;;;;;;;;;4982427;28;20053;-59
2023/10/11 12:35:53;;;;;;;5.40;2.60;;;;;;;;;;4984270;28;20514;-59
2023/10/11 12:38:19;;;;;;;4.50;2.50;;;;;;;;;;4985899;28;20042;-59
2023/10/11 12:40:45;;;;;;;2.65;2.05;;;;;;;;;;4984952;28;20133;-59
2023/10/11 12:43:11;;;;;;;3.42;2.25;;;;;;;;;;4986695;28;20037;-59
2023/10/11 12:45:42;;;;;;;5.15;2.78;;;;;;;;;;4984769;28;20070;-59
2023/10/11 12:48:10;;;;;;;4.55;2.50;;;;;;;;;;4978651;28;20046;-61
2023/10/11 12:50:36;;;;;;;5.07;2.53;;;;;;;;;;4983965;28;20182;-61
2023/10/11 12:53:12;;;;;;;4.50;2.70;;;;;;;;;;4980912;28;20057;-61
2023/10/11 12:55:41;;;;;;;3.38;2.40;;;;;;;;;;4979194;28;20049;-61
2023/10/11 12:58:07;;;;;;;4.57;2.00;;;;;;;;;;4985950;28;20050;-61
2023/10/11 13:00:37;;;;;;;4.50;2.78;;;;;;;;;;4986814;28;20042;-61
2023/10/11 13:03:18;;;;;;;3.80;2.30;;;;;;;;;;4990653;28;20058;-60
2023/10/11 13:05:45;;;;;;;5.68;3.13;;;;;;;;;;4982907;28;20042;-61
2023/10/11 13:08:11;;;;;;;4.25;2.58;;;;;;;;;;4990948;28;20101;-61
2023/10/11 13:10:48;;;;;;;3.00;2.28;;;;;;;;;;4989972;28;20054;-61
2023/10/11 13:13:15;;;;;;;4.43;2.08;;;;;;;;;;4989933;28;20042;-60
2023/10/11 13:15:45;;;;;;;4.28;2.35;;;;;;;;;;4988533;28;20061;-60
2023/10/11 13:18:12;;;;;;;4.35;2.42;;;;;;;;;;4989104;28;20054;-60
2023/10/11 13:20:38;;;;;;;4.25;2.67;;;;;;;;;;4989159;28;20030;-61
2023/10/11 13:23:06;;;;;;;6.78;3.05;;;;;;;;;;4989683;28;20042;-61
2023/10/11 13:25:33;;;;;;;4.82;3.40;;;;;;;;;;4990214;28;20102;-61
2023/10/11 13:28:02;;;;;;;3.55;2.03;;;;;;;;;;4989435;28;20046;-60
2023/10/11 13:30:36;;;;;;;4.80;2.80;;;;;;;;;;4989389;28;20054;-60
2023/10/11 13:33:05;;;;;;;6.10;2.92;;;;;;;;;;4990416;28;20065;-61
2023/10/11 13:35:33;;;;;;;6.65;3.10;;;;;;;;;;4989493;28;20038;-61
2023/10/11 13:38:04;;;;;;;4.20;2.78;;;;;;;;;;4989726;28;20380;-60
2023/10/11 13:40:32;;;;;;;5.45;3.42;;;;;;;;;;4989699;28;20585;-60
2023/10/11 13:42:58;;;;;;;6.97;2.85;;;;;;;;;;4989852;28;20513;-60
2023/10/11 13:45:26;;;;;;;3.40;2.42;;;;;;;;;;4989562;28;20593;-60
2023/10/11 13:47:52;;;;;;;3.65;2.67;;;;;;;;;;4971962;28;20101;-60
2023/10/11 13:50:21;;;;;;;4.30;2.50;;;;;;;;;;4988615;28;20112;-61
2023/10/11 13:52:53;;;;;;;6.50;3.65;;;;;;;;;;4988034;28;20143;-60
2023/10/11 13:55:23;;;;;;;5.60;3.15;;;;;;;;;;4988633;28;20046;-60
2023/10/11 13:57:52;;;;;;;4.03;3.17;;;;;;;;;;4987780;28;20038;-61
2023/10/11 14:05:46;;;;;;;7.00;2.92;;;;;;;;;;4989117;28;20050;-60
2023/10/11 14:08:24;;;;;;;8.07;3.45;;;;;;;;;;4989742;28;20112;-61
2023/10/11 14:10:54;;;;;;;7.95;3.40;;;;;;;;;;4989833;28;20050;-60
2023/10/11 14:13:24;;;;;;;6.82;3.28;;;;;;;;;;4988483;28;20057;-60
2023/10/11 14:15:54;;;;;;;6.63;2.90;;;;;;;;;;4989662;28;20121;-60
2023/10/11 14:18:20;;;;;;;5.13;3.05;;;;;;;;;;4989403;28;20042;-60
2023/10/11 14:20:55;;;;;;;7.65;3.42;;;;;;;;;;4988713;28;20501;-61
2023/10/11 14:23:21;;;;;;;7.00;3.25;;;;;;;;;;4989476;28;20046;-61
2023/10/11 14:25:52;;;;;;;4.95;3.42;;;;;;;;;;4989726;28;20038;-60
2023/10/11 14:28:18;;;;;;;6.00;2.45;;;;;;;;;;4988856;28;20050;-61
2023/10/11 14:30:51;;;;;;;4.88;2.67;;;;;;;;;;4988109;28;20643;-61
2023/10/11 14:33:18;;;;;;;7.32;2.85;;;;;;;;;;4987554;28;20418;-61
2023/10/11 14:35:50;;;;;;;5.85;3.05;;;;;;;;;;4989085;28;20034;-62
2023/10/11 14:38:17;;;;;;;5.53;2.50;;;;;;;;;;4985779;28;20042;-60
2023/10/11 14:40:43;;;;;;;5.10;2.47;;;;;;;;;;4988021;28;20445;-60
2023/10/11 14:43:12;;;;;;;3.72;2.50;;;;;;;;;;4985708;28;20039;-60
2023/10/11 14:45:39;;;;;;;5.10;2.40;;;;;;;;;;4984753;28;20038;-60
2023/10/11 14:48:09;;;;;;;6.50;2.70;;;;;;;;;;4987677;28;20100;-60
2023/10/11 14:50:36;;;;;;;4.57;2.22;;;;;;;;;;4987546;28;20552;-61
2023/10/11 14:53:02;;;;;;;5.47;2.58;;;;;;;;;;4988749;28;20094;-59
2023/10/11 14:55:28;;;;;;;4.97;2.40;;;;;;;;;;4987845;28;20100;-61
2023/10/11 14:57:54;;;;;;;7.68;2.58;;;;;;;;;;4988589;28;20081;-60
2023/10/11 15:00:24;;;;;;;5.53;2.47;;;;;;;;;;4988411;28;20078;-60
2023/10/11 15:02:51;;;;;;;4.68;2.70;;;;;;;;;;4986847;28;20130;-61
2023/10/11 15:05:18;;;;;;;9.00;2.53;;;;;;;;;;4988028;28;20068;-60
2023/10/11 15:07:45;;;;;;;6.38;2.55;;;;;;;;;;4980679;28;20053;-60
2023/10/11 15:10:11;;;;;;;2.70;1.92;;;;;;;;;;4987833;28;20384;-60
2023/10/11 15:12:41;;;;;;;4.60;2.20;;;;;;;;;;4988305;28;20042;-60
2023/10/11 15:15:07;;;;;;;5.47;3.08;;;;;;;;;;4988736;28;20852;-60
2023/10/11 15:17:33;;;;;;;2.92;2.08;;;;;;;;;;4988891;28;20129;-61
2023/10/11 15:19:59;;;;;;;4.57;2.38;;;;;;;;;;4988573;28;20117;-60
2023/10/11 15:22:27;;;;;;;3.30;2.10;;;;;;;;;;4987427;28;20054;-60
2023/10/11 15:24:53;;;;;;;5.45;1.90;;;;;;;;;;4987187;28;20081;-60
2023/10/11 15:27:19;;;;;;;10.23;3.58;;;;;;;;;;4988070;28;20042;-60
2023/10/11 15:29:46;;;;;;;6.47;2.70;;;;;;;;;;4983930;28;20042;-61
2023/10/11 15:32:13;;;;;;;6.47;2.60;;;;;;;;;;4985660;28;20134;-60
2023/10/11 15:34:40;;;;;;;6.90;3.20;;;;;;;;;;4987266;28;20045;-60
2023/10/11 15:37:09;;;;;;;5.53;2.70;;;;;;;;;;4987575;28;20058;-60
2023/10/11 15:39:35;;;;;;;5.40;2.80;;;;;;;;;;4988558;28;20038;-59
2023/10/11 15:42:09;;;;;;;6.28;2.78;;;;;;;;;;4970153;28;20042;-60
2023/10/11 15:44:35;;;;;;;8.15;3.67;;;;;;;;;;4987758;28;20057;-60
2023/10/11 15:47:05;;;;;;;9.45;3.90;;;;;;;;;;4987833;28;20038;-59
2023/10/11 15:49:31;;;;;;;7.40;3.90;;;;;;;;;;4970461;28;20101;-59